Create Custom Reports and Graphics: Custom Report

Scotts Valley

Current Conditions

9/28/21 1:45 PM (-07:00)
Updated Every 15 Minutes
Rain 24Hr 0.01 In
Temp 70.7 °F   2.2
RH 28 %   36
Dew Pt 35.9 °F   19.6
Wet Bulb 52.0 °F   9.2
Wind Dir NNW | 336 °
Wind Spd 4.4 mph   0.9
Wind Gust 12.9 mph   0.3
BatVolt 13.3 V   0.0
Monthly Rain 0.09 In
Seasonal Rainfall 0.09 In

Today & Yesterday

Midnight to Midnight

9/28/21 1:45 PM (-07:00)
Updated Every 15 Minutes
Daily Max Temp 71.0 °F   1.2
Time of Max Temp 1338
Daily Min Temp 39.5 °F   0.3
Time of Min Temp 0734
Daily Max Wind 12.9 mph   0.6
Time of Max Wind 1341
Max Wind Dir NNW | 334 °
Daily Rain 0.00 In
Daily Leaf Wet Hrs 3.3 hrs   3.3
Yesterday's Max Temp 72.2 °F
Yesterday’s Min Temp 39.2 °F
Yesterday's Max Wind 13.9 mph
Yesterday's Rainfall 0.01 In
Leaf Wet Hrs Yest 2.1 Hours

Last 7 Days

Scotts Valley

Hourly Data | America/Los_Angeles
as of 9/28/21 2:01 PM PDT
Date & Time Temp (°F) RH (%) Dew Pt (°F) Wind Dir (°) Wind Spd (mph) Wind Gust (mph) Leaf Wet (mins) BatVolt (V) Latest Rain (In) Max Rain Intensity (In/Hr) Rain 24Hr (In) Daily Rain (In) Daily Min Temp (°F) Daily Max Temp (°F) Daily Max Wind (mph) Daily Leaf Wet Hrs (hrs)
9/28/21 - 1300 68.6 34 39.2 NW | 307 3.0 11.2 0.0 13.3 0.00 - 0.01 0.00 39.5 70.5 11.2 3.3
9/28/21 - 1200 65.2 39 39.6 NE | 52 2.3 7.9 0.0 13.4 0.00 - 0.01 0.00 39.5 66.8 8.0 3.3
9/28/21 - 1100 61.8 42 38.2 N | 359 2.2 8.0 0.0 13.4 0.00 - 0.01 0.00 39.5 64.3 8.0 3.3
9/28/21 - 1000 57.0 57 42.0 NNW | 329 1.7 6.5 0.0 13.5 0.00 - 0.01 0.00 39.5 59.0 6.5 3.3
9/28/21 - 0900 49.8 75 42.1 WNW | 282 0.8 5.0 0.0 13.6 0.00 - 0.01 0.00 39.5 54.5 6.5 3.3
9/28/21 - 0800 40.8 93 38.9 SSW | 200 0.8 3.2 28.6 13.2 0.00 - 0.01 0.00 39.5 47.1 6.5 3.3
9/28/21 - 0700 42.4 90 39.8 W | 265 0.4 2.4 0.0 12.7 0.00 - 0.01 0.00 41.2 47.1 6.5 2.8
9/28/21 - 0600 45.8 86 41.7 N | 4 1.1 6.5 0.0 12.7 0.00 - 0.01 0.00 41.6 47.1 6.5 2.8
9/28/21 - 0500 45.3 89 42.2 SSW | 192 1.0 3.9 0.0 12.7 0.00 - 0.01 0.00 41.6 47.1 5.7 2.8
9/28/21 - 0400 44.4 92 42.2 WNW | 292 1.4 5.7 55.8 12.8 0.00 - 0.01 0.00 41.6 47.1 5.7 2.8
9/28/21 - 0300 43.1 94 41.5 NNW | 336 0.5 2.5 60.0 12.8 0.00 - 0.01 0.00 41.6 45.3 4.6 1.9
9/28/21 - 0200 43.9 93 42.0 S | 183 1.6 4.6 51.3 12.8 0.00 - 0.01 0.00 42.5 45.3 4.6 0.9
9/28/21 - 0100 47.5 86 43.6 S | 190 0.9 3.5 0.0 12.8 0.00 - 0.01 0.01 39.2 72.2 13.9 2.1
9/28/21 - 0000 51.5 79 45.2 NW | 312 1.5 7.9 0.0 12.8 0.00 - 0.01 0.01 39.2 72.2 13.9 2.1
9/27/21 - 2300 53.4 77 46.4 WNW | 286 3.1 12.0 0.0 12.8 0.00 - 0.01 0.01 39.2 72.2 13.9 2.1
9/27/21 - 2200 54.6 76 47.3 W | 276 2.6 13.0 0.0 12.9 0.00 - 0.01 0.01 39.2 72.2 13.9 2.1
9/27/21 - 2100 55.4 78 48.6 NW | 305 2.7 13.9 0.0 13.0 0.00 - 0.01 0.01 39.2 72.2 13.9 2.1
9/27/21 - 2000 55.9 77 49.0 W | 268 2.9 10.8 0.0 13.1 0.00 - 0.01 0.01 39.2 72.2 13.5 2.1
9/27/21 - 1900 57.2 84 52.4 WNW | 296 3.3 12.7 0.0 13.2 0.00 - 0.01 0.01 39.2 72.2 13.5 2.1
9/27/21 - 1800 60.2 87 56.5 W | 278 3.6 13.0 21.5 13.4 0.01 0.01 0.01 0.01 39.2 72.2 13.5 2.1
9/27/21 - 1700 62.7 90 59.7 WSW | 248 2.6 11.7 43.5 13.5 0.00 - - 0.00 39.2 72.2 13.5 1.8
9/27/21 - 1600 63.2 90 60.3 SW | 218 2.5 8.7 60.0 13.5 0.00 - - 0.00 39.2 72.2 13.5 1.0
9/27/21 - 1500 66.2 75 58.0 SW | 230 4.5 11.8 2.6 13.4 0.00 - - 0.00 39.2 72.2 13.5 0.0
9/27/21 - 1400 69.0 62 55.7 WSW | 245 5.7 13.2 0.0 13.4 0.00 - - 0.00 39.2 72.2 13.5 0.0
9/27/21 - 1300 69.7 60 55.1 SW | 234 4.9 13.5 0.0 13.3 0.00 - - 0.00 39.2 72.1 13.5 0.0
9/27/21 - 1200 69.4 58 53.8 NW | 314 2.8 8.4 0.0 13.3 0.00 - - 0.00 39.2 71.2 10.6 0.0
9/27/21 - 1100 66.7 62 53.1 W | 262 3.4 9.6 0.0 13.4 0.00 - - 0.00 39.2 67.9 10.6 0.0
9/27/21 - 1000 63.4 69 53.0 W | 269 2.5 10.6 0.0 13.4 0.00 - - 0.00 39.2 65.9 10.6 0.0
9/27/21 - 0900 57.7 78 50.9 NE | 44 0.8 2.7 0.0 13.5 0.00 - - 0.00 39.2 63.0 3.3 0.0
9/27/21 - 0800 45.3 86 41.4 NE | 46 0.3 3.3 0.0 13.1 0.00 - - 0.00 39.2 49.7 3.3 0.0
9/27/21 - 0700 42.1 90 39.3 SE | 136 0.0 1.1 0.0 12.7 0.00 - - 0.00 39.2 45.2 2.2 0.0
9/27/21 - 0600 40.7 92 38.6 SW | 226 0.2 1.9 0.0 12.7 0.00 - - 0.00 39.2 45.2 2.2 0.0
9/27/21 - 0500 39.5 92 37.3 E | 96 0.2 2.2 0.0 12.7 0.00 - - 0.00 39.2 45.2 2.2 0.0
9/27/21 - 0400 40.4 91 37.9 SSW | 210 0.3 1.6 0.0 12.7 0.00 - - 0.00 39.9 45.2 2.0 0.0
9/27/21 - 0300 41.7 90 38.9 SSW | 209 0.2 1.2 0.0 12.7 0.00 - - 0.00 41.0 45.2 2.0 0.0
9/27/21 - 0200 43.6 87 39.9 SSW | 199 0.2 2.0 0.0 12.7 0.00 - - 0.00 42.2 45.2 2.0 0.0
9/27/21 - 0100 46.9 82 41.6 ESE | 112 0.8 3.6 0.0 12.7 0.00 - - 0.00 39.0 83.8 13.8 2.3
9/27/21 - 0000 52.8 71 43.7 SW | 231 0.7 4.9 0.0 12.8 0.00 - - 0.00 39.0 83.8 13.8 2.3
9/26/21 - 2300 51.4 66 40.6 WSW | 256 0.6 3.8 0.0 12.8 0.00 - - 0.00 39.0 83.8 13.8 2.3
9/26/21 - 2200 55.0 52 37.7 W | 268 0.4 2.5 0.0 12.8 0.00 - - 0.00 39.0 83.8 13.8 2.3
9/26/21 - 2100 60.2 52 42.3 N | 6 0.9 4.1 0.0 12.9 0.00 - - 0.00 39.0 83.8 13.8 2.3
9/26/21 - 2000 64.6 46 43.6 NNW | 344 0.8 5.5 0.0 13.0 0.00 - - 0.00 39.0 83.8 13.8 2.3
9/26/21 - 1900 72.7 36 44.2 WNW | 290 1.6 10.4 0.0 13.1 0.00 - - 0.00 39.0 83.8 13.8 2.3
9/26/21 - 1800 77.9 30 44.3 W | 264 4.3 12.7 0.0 13.2 0.00 - - 0.00 39.0 83.8 13.8 2.3
9/26/21 - 1700 81.7 21 37.6 WSW | 252 4.5 11.6 0.0 13.1 0.00 - - 0.00 39.0 83.8 13.8 2.3
9/26/21 - 1600 83.1 14 29.4 WSW | 254 4.3 11.2 0.0 13.1 0.00 - - 0.00 39.0 83.8 13.8 2.3
9/26/21 - 1500 82.0 18 33.6 W | 274 4.3 13.7 0.0 13.2 0.00 - - 0.00 39.0 83.6 13.8 2.3
9/26/21 - 1400 81.5 22 39.2 WSW | 248 4.0 13.8 0.0 13.2 0.00 - - 0.00 39.0 82.3 13.8 2.3
9/26/21 - 1300 79.9 32 47.4 SE | 134 2.7 8.0 0.0 13.2 0.00 - - 0.00 39.0 81.8 8.0 2.3
9/26/21 - 1200 74.5 39 47.8 ESE | 114 2.0 6.2 0.0 13.2 0.00 - - 0.00 39.0 76.9 6.2 2.3
9/26/21 - 1100 68.7 45 46.3 NE | 38 1.4 4.2 0.0 13.3 0.00 - - 0.00 39.0 71.4 4.2 2.3
9/26/21 - 1000 62.6 56 46.6 NNE | 28 0.7 3.0 0.0 13.4 0.00 - - 0.00 39.0 66.1 3.5 2.3
9/26/21 - 0900 52.6 81 46.8 N | 11 0.7 3.5 0.0 13.5 0.00 - - 0.00 39.0 58.6 3.5 2.3
9/26/21 - 0800 40.2 97 39.4 S | 179 0.2 1.5 38.3 13.0 0.00 - - 0.00 39.0 48.0 2.3 2.3
9/26/21 - 0700 40.2 95 39.0 SSE | 161 0.2 1.6 60.0 12.6 0.00 - - 0.00 39.3 48.0 2.3 1.6
9/26/21 - 0600 41.2 95 39.9 SW | 214 0.2 1.8 38.8 12.6 0.00 - - 0.00 40.7 48.0 2.3 0.6
9/26/21 - 0500 41.7 93 39.8 WSW | 249 0.4 2.2 0.0 12.7 0.00 - - 0.00 41.1 48.0 2.3 0.0
9/26/21 - 0400 43.4 92 41.1 S | 171 0.1 1.5 0.0 12.7 0.00 - - 0.00 42.4 48.0 2.3 0.0
9/26/21 - 0300 45.6 88 42.1 S | 188 0.4 2.3 0.0 12.7 0.00 - - 0.00 44.4 48.0 2.3 0.0
9/26/21 - 0200 47.3 85 43.0 ESE | 104 0.3 2.1 0.0 12.7 0.00 - - 0.00 46.3 48.0 2.1 0.0
9/26/21 - 0100 48.7 82 43.6 SSE | 166 0.3 1.9 0.0 12.7 0.00 - - 0.00 39.2 88.4 14.6 0.0
9/26/21 - 0000 51.5 76 44.3 NE | 51 0.2 2.2 0.0 12.8 0.00 - - 0.00 39.2 88.4 14.6 0.0
9/25/21 - 2300 55.1 72 46.2 SW | 228 1.2 3.7 0.0 12.8 0.00 - - 0.00 39.2 88.4 14.6 0.0
9/25/21 - 2200 61.6 58 46.6 SSW | 195 0.8 4.2 0.0 12.8 0.00 - - 0.00 39.2 88.4 14.6 0.0
9/25/21 - 2100 63.5 54 46.4 SW | 236 1.9 10.6 0.0 12.8 0.00 - - 0.00 39.2 88.4 14.6 0.0
9/25/21 - 2000 65.9 52 47.5 SSW | 201 0.8 2.8 0.0 12.9 0.00 - - 0.00 39.2 88.4 14.6 0.0
9/25/21 - 1900 78.7 33 47.2 SW | 217 2.0 6.4 0.0 13.0 0.00 - - 0.00 39.2 88.4 14.6 0.0
9/25/21 - 1800 83.9 27 45.9 WSW | 239 3.3 9.9 0.0 13.1 0.00 - - 0.00 39.2 88.4 14.6 0.0
9/25/21 - 1700 85.7 24 45.1 SW | 223 4.3 12.5 0.0 13.1 0.00 - - 0.00 39.2 88.4 14.6 0.0
9/25/21 - 1600 86.4 24 45.0 SW | 222 4.8 13.3 0.0 13.1 0.00 - - 0.00 39.2 88.4 14.6 0.0
9/25/21 - 1500 85.6 23 43.2 WSW | 240 5.3 12.9 0.0 13.1 0.00 - - 0.00 39.2 87.0 14.6 0.0
9/25/21 - 1400 85.4 22 42.8 WSW | 242 5.9 14.6 0.0 13.2 0.00 - - 0.00 39.2 87.0 14.6 0.0
9/25/21 - 1300 86.0 21 41.9 SSE | 153 2.8 12.6 0.0 13.1 0.00 - - 0.00 39.2 87.0 12.6 0.0
9/25/21 - 1200 82.4 24 41.9 E | 100 2.6 7.6 0.0 13.2 0.00 - - 0.00 39.2 84.9 7.6 0.0
9/25/21 - 1100 76.9 27 40.8 ENE | 59 1.2 4.3 0.0 13.2 0.00 - - 0.00 39.2 81.1 4.3 0.0
9/25/21 - 1000 68.9 34 39.4 N | 7 0.6 3.0 0.0 13.3 0.00 - - 0.00 39.2 72.8 3.0 0.0
9/25/21 - 0900 54.8 53 37.8 ESE | 104 0.3 2.1 0.0 13.5 0.00 - - 0.00 39.2 62.8 2.6 0.0
9/25/21 - 0800 40.7 80 34.9 SW | 219 0.1 1.4 0.0 13.0 0.00 - - 0.00 39.2 48.8 2.6 0.0
9/25/21 - 0700 39.6 82 34.4 W | 260 0.2 2.3 0.0 12.6 0.00 - - 0.00 39.3 48.8 2.6 0.0
9/25/21 - 0600 40.7 79 34.8 NNW | 333 0.2 1.3 0.0 12.6 0.00 - - 0.00 40.0 48.8 2.6 0.0
9/25/21 - 0500 41.8 78 35.5 S | 184 0.3 2.6 0.0 12.6 0.00 - - 0.00 41.1 48.8 2.6 0.0
9/25/21 - 0400 43.3 76 36.3 SW | 223 0.1 1.8 0.0 12.7 0.00 - - 0.00 42.5 48.8 2.0 0.0
9/25/21 - 0300 45.2 72 36.9 E | 98 0.2 2.0 0.0 12.7 0.00 - - 0.00 44.5 48.8 2.0 0.0
9/25/21 - 0200 47.5 67 37.1 E | 96 0.0 1.1 0.0 12.7 0.00 - - 0.00 46.2 48.8 1.1 0.0
9/25/21 - 0100 49.9 64 38.2 E | 97 0.0 0.9 0.0 12.7 0.00 - - 0.00 42.9 99.3 13.5 0.0
9/25/21 - 0000 52.6 60 39.1 ENE | 68 0.1 1.1 0.0 12.8 0.00 - - 0.00 42.9 99.3 13.5 0.0
9/24/21 - 2300 55.9 56 40.5 SSE | 155 0.0 1.0 0.0 12.8 0.00 - - 0.00 42.9 99.3 13.5 0.0
9/24/21 - 2200 60.4 50 41.8 E | 95 0.0 0.7 0.0 12.8 0.00 - - 0.00 42.9 99.3 13.5 0.0
9/24/21 - 2100 67.5 40 42.0 ESE | 108 0.1 1.3 0.0 12.8 0.00 - - 0.00 42.9 99.3 13.5 0.0
9/24/21 - 2000 78.6 25 40.0 WSW | 244 2.0 6.7 0.0 12.9 0.00 - - 0.00 42.9 99.3 13.5 0.0
9/24/21 - 1900 86.2 21 42.1 WSW | 247 3.0 10.7 0.0 13.0 0.00 - - 0.00 42.9 99.3 13.5 0.0
9/24/21 - 1800 91.5 19 43.9 WSW | 246 4.9 13.5 0.0 13.1 0.00 - - 0.00 42.9 99.3 13.5 0.0
9/24/21 - 1700 96.3 14 40.0 S | 182 3.8 11.7 0.0 13.0 0.00 - - 0.00 42.9 99.3 11.7 0.0
9/24/21 - 1600 97.7 12 36.9 ESE | 120 2.7 8.2 0.0 13.0 0.00 - - 0.00 42.9 99.3 8.2 0.0
9/24/21 - 1500 96.0 13 36.4 SE | 133 2.5 7.1 0.0 13.0 0.00 - - 0.00 42.9 98.5 7.1 0.0
9/24/21 - 1400 93.9 13 35.6 SSE | 149 2.5 6.6 0.0 13.0 0.00 - - 0.00 42.9 95.4 6.6 0.0
9/24/21 - 1300 91.0 17 40.3 SE | 144 3.0 6.2 0.0 13.1 0.00 - - 0.00 42.9 92.6 6.2 0.0
9/24/21 - 1200 86.6 23 44.7 SE | 146 2.4 6.0 0.0 13.1 0.00 - - 0.00 42.9 88.3 6.0 0.0
9/24/21 - 1100 79.5 32 46.6 NE | 39 1.2 3.5 0.0 13.2 0.00 - - 0.00 42.9 82.8 3.5 0.0
9/24/21 - 1000 70.6 42 46.1 E | 88 0.5 2.8 0.0 13.3 0.00 - - 0.00 42.9 76.2 3.1 0.0
9/24/21 - 0900 56.9 60 42.7 SSE | 160 0.0 1.0 0.0 13.5 0.00 - - 0.00 42.9 64.2 3.1 0.0
9/24/21 - 0800 44.2 83 39.5 SSW | 204 0.0 0.5 0.0 13.0 0.00 - - 0.00 42.9 51.3 3.1 0.0
9/24/21 - 0700 43.4 84 39.0 SSW | 209 0.1 1.4 0.0 12.6 0.00 - - 0.00 42.9 51.3 3.1 0.0
9/24/21 - 0600 44.6 82 39.4 SSE | 156 0.2 1.1 0.0 12.6 0.00 - - 0.00 43.9 51.3 3.1 0.0
9/24/21 - 0500 46.0 79 39.7 SSW | 211 0.2 1.5 0.0 12.6 0.00 - - 0.00 45.5 51.3 3.1 0.0
9/24/21 - 0400 47.2 76 40.1 E | 86 0.3 1.8 0.0 12.7 0.00 - - 0.00 46.6 51.3 3.1 0.0
9/24/21 - 0300 48.9 73 40.7 E | 90 0.5 2.7 0.0 12.7 0.00 - - 0.00 47.9 51.3 3.1 0.0
9/24/21 - 0200 50.6 70 41.2 SSE | 166 0.6 3.1 0.0 12.7 0.00 - - 0.00 49.8 51.3 3.1 0.0
9/24/21 - 0100 52.2 68 41.8 S | 174 0.3 1.8 0.0 12.7 0.00 - - 0.00 40.8 97.1 9.3 0.0
9/24/21 - 0000 54.6 64 42.6 SSE | 148 0.4 3.0 0.0 12.7 0.00 - - 0.00 40.8 97.1 9.3 0.0
9/23/21 - 2300 58.1 58 43.5 SSW | 212 0.4 2.1 0.0 12.8 0.00 - - 0.00 40.8 97.1 9.3 0.0
9/23/21 - 2200 64.7 47 43.6 S | 180 0.5 2.5 0.0 12.8 0.00 - - 0.00 40.8 97.1 9.3 0.0
9/23/21 - 2100 73.7 34 43.7 SSW | 212 0.6 4.6 0.0 12.8 0.00 - - 0.00 40.8 97.1 9.3 0.0
9/23/21 - 2000 79.5 29 44.3 W | 279 1.1 6.4 0.0 12.9 0.00 - - 0.00 40.8 97.1 9.3 0.0
9/23/21 - 1900 87.4 23 44.6 NW | 325 1.7 8.3 0.0 13.0 0.00 - - 0.00 40.8 97.1 9.3 0.0
9/23/21 - 1800 93.9 17 43.0 SSE | 155 2.1 6.6 0.0 13.0 0.00 - - 0.00 40.8 97.1 9.3 0.0
9/23/21 - 1700 96.1 14 39.9 SE | 140 2.3 5.9 0.0 13.0 0.00 - - 0.00 40.8 97.1 9.3 0.0
9/23/21 - 1600 96.0 14 39.6 SSE | 148 2.9 8.0 0.0 13.0 0.00 - - 0.00 40.8 97.1 9.3 0.0
9/23/21 - 1500 94.4 15 39.1 SE | 143 3.2 9.1 0.0 13.0 0.00 - - 0.00 40.8 95.7 9.3 0.0
9/23/21 - 1400 91.7 17 40.5 SSE | 147 3.3 9.3 0.0 13.1 0.00 - - 0.00 40.8 93.3 9.3 0.0
9/23/21 - 1300 89.7 22 45.6 SSE | 149 3.0 8.8 0.0 13.0 0.00 - - 0.00 40.8 90.5 8.8 0.0
9/23/21 - 1200 85.0 24 44.3 SE | 140 1.8 4.9 0.0 13.1 0.00 - - 0.00 40.8 87.3 4.9 0.0
9/23/21 - 1100 78.5 31 45.1 SSE | 151 0.9 3.3 0.0 13.2 0.00 - - 0.00 40.8 82.7 3.3 0.0
9/23/21 - 1000 70.2 41 45.6 NE | 56 0.7 2.8 0.0 13.3 0.00 - - 0.00 40.8 74.4 2.8 0.0
9/23/21 - 0900 56.8 55 40.6 SSE | 160 0.1 0.9 0.0 13.5 0.00 - - 0.00 40.8 64.8 2.1 0.0
9/23/21 - 0800 42.6 80 36.9 SSE | 162 0.0 0.5 0.0 13.0 0.00 - - 0.00 40.8 48.8 2.1 0.0
9/23/21 - 0700 41.3 82 36.2 SW | 219 0.2 1.2 0.0 12.6 0.00 - - 0.00 40.8 48.7 2.1 0.0
9/23/21 - 0600 42.1 80 36.5 S | 179 0.0 1.0 0.0 12.7 0.00 - - 0.00 41.7 48.7 2.1 0.0
9/23/21 - 0500 43.0 77 36.4 SSE | 168 0.3 2.1 0.0 12.7 0.00 - - 0.00 42.2 48.7 2.1 0.0
9/23/21 - 0400 44.5 74 36.9 S | 176 0.1 2.1 0.0 12.7 0.00 - - 0.00 43.6 48.7 2.1 0.0
9/23/21 - 0300 46.1 71 37.4 SW | 216 0.1 1.3 0.0 12.7 0.00 - - 0.00 45.3 48.7 1.3 0.0
9/23/21 - 0200 47.8 68 37.7 S | 181 0.1 1.2 0.0 12.7 0.00 - - 0.00 46.8 48.7 1.2 0.0
9/23/21 - 0100 49.8 64 38.4 S | 178 0.2 2.1 0.0 12.7 0.00 - - 0.00 43.0 94.0 11.8 0.0
9/23/21 - 0000 52.5 60 39.0 WSW | 256 0.7 2.7 0.0 12.8 0.00 - - 0.00 43.0 94.0 11.8 0.0
9/22/21 - 2300 55.6 54 39.5 S | 191 0.4 2.3 0.0 12.8 0.00 - - 0.00 43.0 94.0 11.8 0.0
9/22/21 - 2200 61.0 45 39.6 SSW | 201 0.5 2.8 0.0 12.8 0.00 - - 0.00 43.0 94.0 11.8 0.0
9/22/21 - 2100 69.5 33 39.1 SSW | 199 0.8 3.9 0.0 12.8 0.00 - - 0.00 43.0 94.0 11.8 0.0
9/22/21 - 2000 75.9 25 37.8 WSW | 258 1.1 5.4 0.0 12.9 0.00 - - 0.00 43.0 94.0 11.8 0.0
9/22/21 - 1900 83.2 22 40.9 WNW | 291 2.5 9.4 0.0 13.0 0.00 - - 0.00 43.0 94.0 11.8 0.0
9/22/21 - 1800 89.4 17 39.3 WNW | 283 3.8 11.7 0.0 13.1 0.00 - - 0.00 43.0 94.0 11.8 0.0
9/22/21 - 1700 92.5 13 35.1 W | 259 2.9 10.2 0.0 13.0 0.00 - - 0.00 43.0 94.0 11.8 0.0
9/22/21 - 1600 92.1 12 33.2 SW | 236 2.9 11.3 0.0 13.0 0.00 - - 0.00 43.0 93.7 11.8 0.0
9/22/21 - 1500 91.4 14 36.1 SSW | 204 3.5 11.0 0.0 13.1 0.00 - - 0.00 43.0 93.0 11.8 0.0
9/22/21 - 1400 89.6 15 36.5 SW | 223 4.6 11.8 0.0 13.1 0.00 - - 0.00 43.0 90.9 11.8 0.0
9/22/21 - 1300 89.4 16 37.7 SSW | 212 3.1 10.8 0.0 13.1 0.00 - - 0.00 43.0 90.9 10.8 0.0
9/22/21 - 1200 86.1 21 41.7 SE | 124 2.2 6.4 0.0 13.1 0.00 - - 0.00 43.0 88.5 6.4 0.0
9/22/21 - 1100 79.7 29 45.0 NE | 54 1.3 4.4 0.0 13.2 0.00 - - 0.00 43.0 83.1 4.4 0.0
9/22/21 - 1000 72.7 38 45.4 ENE | 73 0.8 3.3 0.0 13.3 0.00 - - 0.00 43.0 77.8 3.3 0.0
9/22/21 - 0900 58.7 53 41.6 E | 100 0.3 2.0 0.0 13.4 0.00 - - 0.00 43.0 66.3 2.3 0.0
9/22/21 - 0800 44.6 80 38.9 SSE | 147 0.2 2.3 0.0 13.0 0.00 - - 0.00 43.0 51.6 2.3 0.0
9/22/21 - 0700 44.0 81 38.5 SSE | 154 0.1 1.4 0.0 12.6 0.00 - - 0.00 43.3 51.6 1.9 0.0
9/22/21 - 0600 45.7 77 39.0 ESE | 112 0.1 1.4 0.0 12.7 0.00 - - 0.00 45.0 51.6 1.9 0.0
9/22/21 - 0500 46.1 76 38.9 SSE | 158 0.2 1.9 0.0 12.7 0.00 - - 0.00 45.6 51.6 1.9 0.0
9/22/21 - 0400 47.2 73 39.1 NE | 37 0.1 1.0 0.0 12.7 0.00 - - 0.00 46.7 51.6 1.4 0.0
9/22/21 - 0300 48.2 72 39.5 NE | 37 0.1 0.9 0.0 12.7 0.00 - - 0.00 47.5 51.6 1.4 0.0
9/22/21 - 0200 50.2 69 40.3 SSE | 147 0.2 1.4 0.0 12.7 0.00 - - 0.00 49.1 51.6 1.4 0.0
9/22/21 - 0100 52.2 65 40.8 SSE | 159 0.2 1.9 0.0 12.7 0.00 - - 0.00 39.3 97.0 14.5 0.0
9/22/21 - 0000 54.4 63 42.0 SW | 229 0.1 1.2 0.0 12.8 0.00 - - 0.00 39.3 97.0 14.5 0.0
9/21/21 - 2300 57.9 57 42.7 W | 272 0.3 2.8 0.0 12.8 0.00 - - 0.00 39.3 97.0 14.5 0.0
9/21/21 - 2200 61.8 50 43.2 SSW | 207 0.3 3.3 0.0 12.8 0.00 - - 0.00 39.3 97.0 14.5 0.0
9/21/21 - 2100 69.1 40 43.5 NE | 48 0.5 2.4 0.0 12.8 0.00 - - 0.00 39.3 97.0 14.5 0.0
9/21/21 - 2000 75.9 32 43.6 SSW | 193 1.4 4.9 0.0 12.9 0.00 - - 0.00 39.3 97.0 14.5 0.0
9/21/21 - 1900 87.9 20 42.0 S | 180 1.9 7.8 0.0 13.0 0.00 - - 0.00 39.3 97.0 14.5 0.0
9/21/21 - 1800 92.4 15 38.8 SW | 230 4.0 11.2 0.0 13.0 0.00 - - 0.00 39.3 97.0 14.5 0.0
9/21/21 - 1700 95.2 14 38.2 S | 176 3.3 14.5 0.0 13.0 0.00 - - 0.00 39.3 97.0 14.5 0.0
9/21/21 - 1600 95.4 13 37.6 E | 91 2.7 8.7 0.0 13.0 0.00 - - 0.00 39.3 97.0 9.9 0.0
9/21/21 - 1500 93.4 14 36.2 ESE | 102 2.7 8.0 0.0 13.0 0.00 - - 0.00 39.3 96.6 9.9 0.0
Max 97.7 97 60.3 - 5.9 14.6 60.0 13.6 0.01 - 0.01 0.01 49.8 99.3 14.6 3.3
Avg 63.5 55 41.9 - 1.5 5.5 2.8 13.0 0.00 - 0.01 - - - - -
Min 39.5 12 29.4 - 0.0 0.5 0.0 12.6 0.00 - 0.01 0.00 39.0 45.2 1.1 0.0
Total - - - - - - - - 0.01 - - - - - - -

Last 30 Days

Scotts Valley

Daily Data | America/Los_Angeles
as of 9/28/21 2:01 PM PDT
Date Daily Max Temp (°F) Time of Max Temp Daily Min Temp (°F) Time of Min Temp Daily Rain (In) Monthly Rain (In) Seasonal Rainfall (In) Daily Max Wind (mph) Time of Max Wind Max Wind Dir (°) Wind Spd (mph) Dew Pt (°F) Max RH (%) Min RH (%) Daily Leaf Wet Hrs (hrs) Degree Hrs (hrs) Chilling <=45F (hrs) Chill Hrs 32-45F (hrs) Utah Chilling (Units) Chill Portions Hrs <= 32F (hrs) Hrs <= 28F (hrs) GDDs (DL) GDDs (Mx/Mn) Seas GDDs (DL) Seas GDDs (Smpl) Hrs 70-85F (hrs) Hrs > 95F (hrs) Powdery Mildew Stress (pts) Bee Hrs Today (Hrs) Storm Total (In) Daily Max Rain Intensity (In/Hr) Time of Max Rain Intensity Max 1 Min Rain (In) Max 1 Min Rain Time Max 15 Min Rain (In) Max 15 Min Precip Time Max 60 Min Rain (In) Max 60 Min Rain Time Bat Volt Min Day (V)
9/27/21 72.2 1300 39.2 0445 0.01 0.09 0.09 13.9 2028 NW | 318 2.2 48.4 95 55 2.1 16.0 6.5 6.5 2.0 0 0.0 0.0 7.3 5.7 3,268 2,948 1.10 0.00 10 9.4 - 0.01 1724 0.01 1725 0.01 1725 0.01 1725 12.5
9/26/21 83.8 1529 39.0 0706 0.00 0.08 0.08 13.8 1329 WSW | 250 1.5 41.5 98 12 2.3 117.0 5.3 5.3 -1.0 0 0.0 0.0 12.6 11.4 3,260 2,942 8.21 0.00 20 10.1 - - - - - - - - - 12.5
9/25/21 88.4 1545 39.2 0714 0.00 0.08 0.08 14.6 1339 W | 266 1.6 41.5 86 20 0.0 170.8 5.5 5.5 -4.0 0 0.0 0.0 15.5 13.8 3,248 2,930 2.49 0.00 0 10.3 - - - - - - - - - 12.5
9/24/21 99.3 1524 42.9 0652 0.00 0.08 0.08 13.5 1723 SW | 234 1.3 40.7 87 11 0.0 255.5 2.5 2.5 -5.5 0 0.0 0.0 19.2 21.1 3,232 2,917 1.66 2.81 0 10.4 - - - - - - - - - 12.5
9/23/21 97.1 1509 40.8 0649 0.00 0.08 0.08 9.3 1335 SE | 141 1.1 41.1 84 13 0.0 256.1 4.7 4.7 -5.0 0 0.0 0.0 19.7 19.0 3,213 2,896 2.26 2.48 0 10.4 - - - - - - - - - 12.5
9/22/21 94.0 1631 43.0 0718 0.00 0.08 0.08 11.8 1348 WSW | 252 1.4 39.2 84 11 0.0 231.5 1.7 1.7 -5.5 0 0.0 0.0 18.3 18.5 3,193 2,877 2.22 0.00 0 10.6 - - - - - - - - - 12.5
9/21/21 97.0 1515 39.3 0716 0.00 0.08 0.08 14.5 1654 NW | 308 1.3 38.0 83 12 0.0 250.0 6.2 6.2 -5.0 0 0.0 0.0 19.3 18.1 3,175 2,858 1.80 1.47 0 10.5 - - - - - - - - - 12.5
9/20/21 92.6 1602 36.6 0644 0.00 0.08 0.08 9.9 1622 ESE | 114 1.3 37.6 99 10 6.5 184.1 7.0 7.0 -1.5 0 0.0 0.0 15.3 14.6 3,156 2,840 2.92 0.00 0 10.1 - - - - - - - - - 12.6
9/19/21 77.2 1608 44.8 0649 0.00 0.08 0.08 12.6 1749 WSW | 256 1.6 48.6 99 33 7.3 58.3 0.2 0.2 -3.5 0 0.0 0.0 10.5 11.0 3,140 2,825 5.64 0.00 0 9.8 - - - - - - - - - 12.6
9/18/21 68.6 1219 44.7 0449 0.01 0.08 0.08 13.7 1301 SW | 214 2.3 53.0 96 64 6.5 2.6 0.3 0.3 -3.0 0 0.0 0.0 8.6 6.7 3,130 2,814 0.00 0.00 0 10.9 - 0.01 2025 0.01 2026 0.01 2026 0.01 2026 12.5
9/17/21 89.4 1516 42.8 0656 0.00 0.07 0.07 15.7 1445 E | 81 1.8 46.8 97 20 0.0 170.3 2.7 2.7 -6.0 0 0.0 0.0 16.4 16.1 3,121 2,808 2.88 0.00 0 10.7 - - - - - - - - - 12.5
9/16/21 90.3 1520 43.1 0657 0.00 0.07 0.07 12.5 1422 WSW | 241 1.5 47.0 96 19 0.0 183.1 2.8 2.8 -5.5 0 0.0 0.0 16.4 16.7 3,105 2,792 3.00 0.00 0 10.8 - - - - - - - - - 12.5
9/15/21 94.8 1552 44.1 0645 0.00 0.07 0.07 13.8 1731 W | 266 1.6 44.1 80 17 0.0 245.7 1.5 1.5 -7.5 0 0.0 0.0 19.6 19.5 3,088 2,775 2.99 0.00 0 10.8 - - - - - - - - - 12.6
9/14/21 101.2 1540 43.3 0652 0.00 0.07 0.07 17.0 1658 WSW | 252 1.4 41.6 80 11 0.0 269.7 2.1 2.1 -6.0 0 0.0 0.0 20.4 22.2 3,069 2,755 1.88 3.54 0 10.8 - - - - - - - - - 12.5
9/13/21 97.8 1638 42.9 0718 0.00 0.07 0.07 14.1 1831 W | 272 1.2 41.8 89 14 0.0 267.5 3.0 3.0 -6.5 0 0.0 0.0 20.5 20.4 3,048 2,733 2.20 2.75 0 10.9 - - - - - - - - - 12.5
9/12/21 96.1 1557 46.6 0628 0.00 0.07 0.07 15.3 1643 WSW | 247 1.6 44.3 87 16 0.0 248.5 0.0 0.0 -8.0 0 0.0 0.0 20.0 21.4 3,028 2,713 2.26 0.40 0 11.3 - - - - - - - - - 12.5
9/11/21 93.7 1613 45.3 0659 0.00 0.07 0.07 14.1 1643 WSW | 242 1.1 47.0 98 16 2.0 217.6 0.0 0.0 -7.0 0 0.0 0.0 18.2 19.5 3,008 2,691 2.84 0.00 0 11.0 - - - - - - - - - 12.5
9/10/21 89.7 1502 51.6 0059 0.07 0.07 0.07 15.4 1431 W | 272 1.8 53.8 99 21 6.7 182.3 0.0 0.0 -15.0 0 0.0 0.0 20.2 20.6 2,990 2,672 4.21 0.00 0 12.0 0.07 0.21 0110 0.01 0102 0.03 0111 0.06 0159 12.5
9/9/21 97.8 1350 54.0 0702 0.00 0.00 0.00 14.1 1626 SW | 226 1.6 44.6 76 11 1.2 286.6 0.0 0.0 -17.0 0 0.0 0.0 24.4 25.9 2,970 2,651 5.75 1.56 0 11.7 - - - - - - - - - 12.5
9/8/21 103.3 1433 55.9 0704 0.00 0.00 0.00 12.3 1449 W | 270 1.0 47.0 71 12 0.0 318.1 0.0 0.0 -18.0 0 0.0 0.0 26.7 29.6 2,945 2,625 2.41 5.04 0 12.1 - - - - - - - - - 12.5
9/7/21 100.8 1312 46.2 0655 0.00 0.00 0.00 20.1 1602 WSW | 248 1.8 38.6 74 6 0.0 337.0 0.0 0.0 -12.0 0 0.0 0.0 24.9 23.5 2,918 2,596 3.48 4.64 0 11.3 - - - - - - - - - 12.5
9/6/21 101.1 1537 39.9 0654 0.00 0.00 0.00 10.0 1602 S | 172 1.1 36.8 76 9 0.0 297.1 4.7 4.7 -7.0 0 0.0 0.0 22.0 20.5 2,894 2,572 1.79 5.21 0 11.2 - - - - - - - - - 12.5
9/5/21 99.6 1711 40.5 0644 0.00 0.00 0.00 12.2 1746 WNW | 291 1.1 37.0 85 8 0.0 277.5 4.2 4.2 -5.0 0 0.0 0.0 20.5 20.1 2,872 2,552 2.10 3.84 0 11.0 - - - - - - - - - 12.5
9/4/21 97.6 1553 40.6 0659 0.00 0.00 0.00 13.6 1751 SW | 230 1.2 39.0 86 5 0.0 258.4 4.7 4.7 -5.5 0 0.0 0.0 19.8 19.1 2,851 2,532 2.25 2.34 0 11.1 - - - - - - - - - 12.5
9/3/21 94.7 1615 41.5 0655 0.00 0.00 0.00 12.5 1829 W | 272 1.3 40.9 96 10 0.0 217.5 3.1 3.1 -5.0 0 0.0 0.0 17.8 18.1 2,831 2,513 2.90 0.00 0 11.2 - - - - - - - - - 12.6
9/2/21 89.5 1518 43.4 0655 0.00 0.00 0.00 12.7 1606 WSW | 248 1.5 46.2 93 20 0.0 165.7 2.4 2.4 -4.0 0 0.0 0.0 15.7 16.4 2,814 2,494 3.86 0.00 0 11.2 - - - - - - - - - 12.5
9/1/21 87.3 1348 38.8 0644 0.00 0.00 0.00 12.9 1821 W | 266 1.8 42.4 84 22 0.0 171.2 5.9 5.9 -4.5 0 0.0 0.0 16.0 13.0 2,798 2,478 4.58 0.00 0 11.2 - - - - - - - - - 12.5
8/31/21 96.3 1455 40.0 0700 0.00 0.00 0.00 15.4 1816 W | 266 1.7 37.0 85 9 0.0 253.2 3.9 3.9 -6.0 - 0.0 0.0 19.6 18.1 2,782 2,465 2.96 0.90 0 11.3 - - - - - - - - - 12.5
8/30/21 102.8 1503 43.8 0646 0.00 0.00 0.00 15.4 1720 NW | 304 1.5 38.1 79 7 0.0 325.6 1.7 1.7 -8.0 - 0.0 0.0 23.4 23.3 2,762 2,447 2.06 5.24 0 11.6 - - - - - - - - - 12.5
8/29/21 103.2 1601 48.1 0656 0.00 0.00 0.00 17.4 1434 WSW | 251 1.4 42.6 78 10 0.0 326.4 0.0 0.0 -11.0 - 0.0 0.0 23.8 25.6 2,739 2,424 1.76 6.25 0 11.6 - - - - - - - - - 12.5
Max 103.3 - 55.9 - 0.07 0.09 - 20.1 - - 2.3 53.8 99 64 7.3 337.0 7.0 7.0 2.0 0 0.0 0.0 26.7 29.6 - - 8.21 6.25 - 12.1 - 0.21 - 0.01 - 0.03 - 0.06 - 12.6
Avg - - - - - 0.05 - - - - 1.5 42.9 - - - - 2.8 2.8 -6.6 0 0.0 0.0 18.4 18.3 - - 2.88 1.62 - 10.9 - - - - - - - - - -
Min 68.6 - 36.6 - 0.00 0.00 - 9.3 - - 1.0 36.8 71 5 0.0 2.6 0.0 0.0 -18.0 0 0.0 0.0 7.3 5.7 - - 0.00 0.00 - 9.4 - 0.01 - 0.01 - 0.01 - 0.01 - 12.5
Total - - - - - - - - - - - - - - - - 82.7 82.7 -196.5 - 0.0 0.0 552.6 549.7 - - 86.44 48.47 - 327.5 - - - - - - - - - -

Climate Summary

Scotts Valley

Current Year | Showing 1/1/21 - 9/27/21
as of 9/28/21 2:01 PM PDT
Temperature (°F) Precip (in) Days
Month Days Avg Max Avg Min Max Max Min Min Total Daily Min Temp < 28 Daily Min Temp < 32 Daily Max Temp > 90 Daily Max Temp > 100 Daily Rain > 0.01 Daily Rain > 0.1
Jan 2021 31 56.4 31 78.2 16.7 3.73 8 20 0 0 16 5
Feb 2021 28 61.3 29.2 73.9 22.3 1.92 14 21 0 0 10 5
Mar 2021 31 62 28.2 78.9 22.3 2.2 14 26 0 0 6 5
Apr 2021 30 74.9 32.1 88.8 26.6 0.1 4 17 0 0 1 0
May 2021 31 81.7 38.9 102.4 28.8 0.12 0 2 3 1 2 0
Jun 2021 30 90.8 45.7 107.9 30.3 0 0 1 18 6 0 0
Jul 2021 31 100 50.1 108.7 42.4 0 0 0 31 15 0 0
Aug 2021 31 97.5 47.8 108.7 39 0 0 0 27 11 0 0
Sep 2021 27 92.4 43.3 103.3 36.6 0.09 0 0 18 4 1 0
Total 270 - - - - 8.16 40 87 97 37 36 15
Average 30 79.7 38.5 - - 0.91 4.4 9.7 10.8 4.1 4 1.7
Maximum 31 100 50.1 108.7 - 3.73 14 26 31 15 16 5
Minimum 27 56.4 28.2 - 16.7 0 0 0 0 0 0 0

Climate Summary

Scotts Valley

Last Year | Showing 1/1/20 - 12/31/20
as of 9/28/21 2:01 PM PDT
Temperature (°F) Precip (in) Days
Month Days Avg Max Avg Min Max Max Min Min Total Daily Min Temp < 28 Daily Min Temp < 32 Daily Max Temp > 90 Daily Max Temp > 100 Daily Rain > 0.01 Daily Rain > 0.1
Jan 2020 31 56.1 31.6 72.9 21.2 2.5 10 20 0 0 13 5
Feb 2020 29 67.8 27.1 77.4 19.7 0 19 26 0 0 0 0
Mar 2020 31 61.3 31.2 80.9 23 1.02 6 21 0 0 8 5
Apr 2020 30 71.3 37.4 87.3 23.8 0.71 2 7 0 0 4 3
May 2020 31 77.8 40.1 96.3 28.4 1.08 0 4 8 0 5 4
Jun 2020 30 86.7 46.2 105.4 31.1 0 0 1 15 3 0 0
Jul 2020 31 94.5 47.6 99.7 39.7 0 0 0 26 0 0 0
Aug 2020 31 95.9 50.9 104.1 40.7 0.09 0 0 28 4 2 0
Sep 2020 30 91.1 44 109.7 35.1 0 0 0 16 4 0 0
Oct 2020 31 87.1 35.9 97.1 26.8 0 3 9 14 0 0 0
Nov 2020 30 65.6 26.5 87.7 15.5 0.84 18 23 0 0 4 2
Dec 2020 31 59.9 26.3 73.5 18.6 2.87 24 27 0 0 8 5
Total 366 - - - - 9.11 82 138 107 11 44 24
Average 30.5 76.2 37.1 - - 0.76 6.8 11.5 8.9 0.9 3.7 2
Maximum 31 95.9 50.9 109.7 - 2.87 24 27 28 4 13 5
Minimum 29 56.1 26.3 - 15.5 0 0 0 0 0 0 0
Calm: 1.0%
Calm: 1.3%